Time;durP1;ratioP1;P1;durP2;ratioP2;P2;SDS_P1;SDS_P2;PMS_P1;PMS_P2;Temp;Humidity;BMP_temperature;BMP_pressure;BME280_temperature;BME280_humidity;BME280_pressure;Samples;Min_cycle;Max_cycle;Signal;HPM_P1;HPM_P2
2022/05/21 00:01:25;;;;;;;4.10;2.60;;;;;;;;;;5086752;28;20100;-88
2022/05/21 00:03:51;;;;;;;4.38;3.10;;;;;;;;;;5079331;28;20077;-89
2022/05/21 00:06:17;;;;;;;4.32;2.30;;;;;;;;;;5062387;28;20024;-88
2022/05/21 00:08:43;;;;;;;3.42;2.30;;;;;;;;;;5081064;28;20017;-87
2022/05/21 00:11:09;;;;;;;5.43;2.72;;;;;;;;;;5080625;28;20020;-87
2022/05/21 00:13:34;;;;;;;4.53;2.75;;;;;;;;;;5079076;28;20020;-87
2022/05/21 00:16:00;;;;;;;3.58;2.70;;;;;;;;;;5081071;28;20025;-88
2022/05/21 00:18:25;;;;;;;8.40;2.45;;;;;;;;;;5060099;28;20027;-87
2022/05/21 00:20:51;;;;;;;4.10;2.40;;;;;;;;;;5082455;28;20092;-87
2022/05/21 00:23:27;;;;;;;4.40;2.95;;;;;;;;;;5082853;28;20029;-88
2022/05/21 00:26:11;;;;;;;3.65;2.78;;;;;;;;;;5063685;28;20017;-87
2022/05/21 00:28:39;;;;;;;5.15;3.03;;;;;;;;;;5072934;28;20032;-88
2022/05/21 00:31:05;;;;;;;4.97;3.25;;;;;;;;;;5091804;28;20017;-86
2022/05/21 00:33:31;;;;;;;4.32;2.97;;;;;;;;;;5085594;28;20111;-87
2022/05/21 00:35:57;;;;;;;4.85;3.33;;;;;;;;;;5081523;28;20036;-87
2022/05/21 00:38:23;;;;;;;6.22;3.67;;;;;;;;;;5075584;28;20024;-86
2022/05/21 00:40:49;;;;;;;3.38;2.65;;;;;;;;;;5071491;28;20016;-86
2022/05/21 00:43:40;;;;;;;4.50;3.33;;;;;;;;;;5055816;28;20044;-86
2022/05/21 00:46:12;;;;;;;4.20;2.78;;;;;;;;;;5048053;28;20075;-87
2022/05/21 00:48:39;;;;;;;3.60;3.05;;;;;;;;;;5073647;28;20080;-86
2022/05/21 00:51:09;;;;;;;5.15;3.25;;;;;;;;;;5066962;28;20043;-86
2022/05/21 00:53:35;;;;;;;6.35;3.40;;;;;;;;;;5075240;28;20025;-87
2022/05/21 00:56:02;;;;;;;5.07;3.38;;;;;;;;;;5055265;28;20031;-86
2022/05/21 01:01:15;;;;;;;5.70;3.30;;;;;;;;;;5071952;28;20031;-86
2022/05/21 01:03:42;;;;;;;4.82;3.15;;;;;;;;;;5071185;28;20021;-87
2022/05/21 01:06:08;;;;;;;4.43;3.30;;;;;;;;;;5072016;28;20024;-88
2022/05/21 01:08:33;;;;;;;5.15;3.50;;;;;;;;;;5070445;28;20033;-88
2022/05/21 01:11:02;;;;;;;3.67;2.50;;;;;;;;;;5072234;28;20028;-87
2022/05/21 01:13:32;;;;;;;5.75;2.85;;;;;;;;;;5072512;28;20556;-88
2022/05/21 01:15:58;;;;;;;4.38;3.08;;;;;;;;;;5067404;28;20195;-87
2022/05/21 01:18:24;;;;;;;3.72;2.92;;;;;;;;;;5056663;28;20020;-87
2022/05/21 01:20:55;;;;;;;3.28;2.78;;;;;;;;;;5063676;28;20038;-88
2022/05/21 01:23:21;;;;;;;4.63;2.83;;;;;;;;;;5067606;28;20096;-86
2022/05/21 01:25:48;;;;;;;3.95;2.78;;;;;;;;;;5079446;28;20435;-87
2022/05/21 01:28:16;;;;;;;4.60;3.05;;;;;;;;;;5078474;28;20028;-87
2022/05/21 01:30:45;;;;;;;6.50;2.53;;;;;;;;;;5079947;28;20035;-87
2022/05/21 01:33:13;;;;;;;3.92;3.20;;;;;;;;;;5056805;28;20072;-87
2022/05/21 01:35:40;;;;;;;3.78;3.08;;;;;;;;;;5097199;28;20074;-88
2022/05/21 01:38:07;;;;;;;3.88;2.70;;;;;;;;;;5087340;28;20035;-87
2022/05/21 01:40:33;;;;;;;5.30;2.92;;;;;;;;;;5077383;28;20116;-86
2022/05/21 01:45:43;;;;;;;4.88;2.45;;;;;;;;;;5084968;28;20662;-87
2022/05/21 01:48:09;;;;;;;14.60;3.05;;;;;;;;;;5071735;28;20656;-85
2022/05/21 01:50:36;;;;;;;3.67;2.50;;;;;;;;;;5094433;28;20740;-87
2022/05/21 01:53:01;;;;;;;7.53;3.20;;;;;;;;;;5090134;28;20033;-87
2022/05/21 01:55:27;;;;;;;4.90;3.00;;;;;;;;;;5086963;28;20043;-86
2022/05/21 01:57:52;;;;;;;5.03;3.05;;;;;;;;;;5086630;28;20025;-86
2022/05/21 02:00:18;;;;;;;3.40;2.92;;;;;;;;;;5103783;28;20055;-87
2022/05/21 02:02:44;;;;;;;4.13;3.10;;;;;;;;;;5109218;28;20016;-87
2022/05/21 02:05:09;;;;;;;3.90;3.05;;;;;;;;;;5101828;28;20032;-87
2022/05/21 02:07:35;;;;;;;4.10;3.00;;;;;;;;;;5095845;28;20043;-87
2022/05/21 02:10:01;;;;;;;3.47;2.78;;;;;;;;;;5052945;28;20021;-86
2022/05/21 02:12:27;;;;;;;6.13;3.00;;;;;;;;;;5068897;28;20104;-87
2022/05/21 02:14:54;;;;;;;3.70;2.80;;;;;;;;;;5083459;28;20017;-86
2022/05/21 02:17:20;;;;;;;7.65;3.72;;;;;;;;;;5100322;28;20041;-87
2022/05/21 02:19:46;;;;;;;6.80;3.38;;;;;;;;;;5088228;28;20028;-87
2022/05/21 02:22:12;;;;;;;6.70;3.63;;;;;;;;;;5081025;28;20017;-87
2022/05/21 02:24:37;;;;;;;4.78;3.28;;;;;;;;;;5105736;28;20033;-87
2022/05/21 02:27:03;;;;;;;4.65;2.92;;;;;;;;;;5097734;28;20028;-87
2022/05/21 02:29:29;;;;;;;3.83;3.33;;;;;;;;;;5092039;28;20020;-87
2022/05/21 02:31:54;;;;;;;5.68;3.30;;;;;;;;;;5106330;28;20040;-87
2022/05/21 02:34:20;;;;;;;3.95;3.08;;;;;;;;;;5104350;28;20020;-87
2022/05/21 02:39:29;;;;;;;5.13;3.60;;;;;;;;;;5102224;28;20027;-88
2022/05/21 02:41:59;;;;;;;6.03;3.60;;;;;;;;;;5097145;28;20036;-86
2022/05/21 02:44:25;;;;;;;6.18;3.83;;;;;;;;;;5095782;28;20074;-86
2022/05/21 02:46:51;;;;;;;4.95;3.38;;;;;;;;;;5070307;28;20020;-86
2022/05/21 02:49:17;;;;;;;8.57;4.13;;;;;;;;;;5061031;28;20043;-86
2022/05/21 02:51:42;;;;;;;5.93;3.70;;;;;;;;;;5054251;28;20103;-86
2022/05/21 02:54:10;;;;;;;5.70;3.90;;;;;;;;;;5089838;28;20318;-86
2022/05/21 02:56:36;;;;;;;7.10;3.85;;;;;;;;;;5089722;28;20049;-86
2022/05/21 02:59:06;;;;;;;4.40;3.33;;;;;;;;;;5097570;28;20020;-86
2022/05/21 03:01:33;;;;;;;10.57;4.15;;;;;;;;;;5095004;28;20044;-85
2022/05/21 03:03:59;;;;;;;6.43;4.15;;;;;;;;;;5077390;28;20043;-87
2022/05/21 03:06:24;;;;;;;5.43;3.72;;;;;;;;;;5089495;28;20024;-86
2022/05/21 03:11:33;;;;;;;5.75;3.83;;;;;;;;;;5088427;28;20098;-86
2022/05/21 03:13:59;;;;;;;5.85;4.60;;;;;;;;;;5096737;28;20024;-86
2022/05/21 03:16:24;;;;;;;8.57;4.60;;;;;;;;;;5086834;28;20025;-86
2022/05/21 03:18:49;;;;;;;6.70;4.28;;;;;;;;;;5049380;28;20116;-87
2022/05/21 03:21:15;;;;;;;6.75;4.78;;;;;;;;;;5067630;28;20074;-87
2022/05/21 03:23:40;;;;;;;6.15;4.55;;;;;;;;;;5086177;28;20012;-86
2022/05/21 03:26:06;;;;;;;6.93;5.00;;;;;;;;;;5085501;28;20092;-86
2022/05/21 03:28:31;;;;;;;10.35;5.25;;;;;;;;;;5086282;28;20474;-87
2022/05/21 03:30:57;;;;;;;7.22;5.25;;;;;;;;;;5059913;28;20044;-85
2022/05/21 03:33:22;;;;;;;15.90;5.43;;;;;;;;;;5082450;28;20016;-86
2022/05/21 03:35:47;;;;;;;7.88;5.15;;;;;;;;;;5104053;28;20120;-86
2022/05/21 03:38:14;;;;;;;7.20;4.97;;;;;;;;;;5091180;28;20031;-86
2022/05/21 03:40:40;;;;;;;8.57;5.45;;;;;;;;;;5062459;28;20085;-85
2022/05/21 03:43:05;;;;;;;6.70;4.95;;;;;;;;;;5077563;28;20021;-86
2022/05/21 03:45:31;;;;;;;7.47;5.47;;;;;;;;;;5080668;28;20142;-86
2022/05/21 03:47:56;;;;;;;8.57;5.28;;;;;;;;;;5079995;28;20031;-87
2022/05/21 03:50:25;;;;;;;7.75;5.63;;;;;;;;;;5062260;28;20024;-85
2022/05/21 03:52:50;;;;;;;8.20;5.72;;;;;;;;;;5079947;28;20036;-84
2022/05/21 03:55:16;;;;;;;11.95;6.22;;;;;;;;;;5081469;28;20470;-87
2022/05/21 03:57:41;;;;;;;10.85;5.85;;;;;;;;;;5077347;28;20067;-85
2022/05/21 04:00:10;;;;;;;9.32;5.80;;;;;;;;;;5081265;28;20036;-86
2022/05/21 04:02:37;;;;;;;7.90;5.90;;;;;;;;;;5077152;28;20029;-86
2022/05/21 04:05:03;;;;;;;7.97;5.65;;;;;;;;;;5079901;28;20047;-86
2022/05/21 04:07:29;;;;;;;7.88;5.93;;;;;;;;;;5077062;28;20051;-87
2022/05/21 04:09:54;;;;;;;9.18;5.82;;;;;;;;;;5079430;28;20037;-87
2022/05/21 04:12:19;;;;;;;8.05;5.50;;;;;;;;;;5074254;28;20039;-87
2022/05/21 04:14:45;;;;;;;8.57;5.63;;;;;;;;;;5062002;28;20025;-87
2022/05/21 04:17:13;;;;;;;6.90;5.80;;;;;;;;;;5082526;28;20028;-87
2022/05/21 04:19:39;;;;;;;8.35;5.75;;;;;;;;;;5062479;28;20043;-86
2022/05/21 04:22:05;;;;;;;8.25;5.95;;;;;;;;;;5074654;28;20089;-86
2022/05/21 04:24:31;;;;;;;9.30;5.90;;;;;;;;;;5079656;28;20027;-86
2022/05/21 04:26:56;;;;;;;9.57;5.50;;;;;;;;;;5081328;28;20440;-86
2022/05/21 04:29:21;;;;;;;10.80;5.15;;;;;;;;;;5082060;28;20419;-86
2022/05/21 04:31:47;;;;;;;7.70;5.53;;;;;;;;;;5082168;28;20082;-87
2022/05/21 04:34:13;;;;;;;6.70;4.60;;;;;;;;;;5063125;28;20036;-85
2022/05/21 04:36:38;;;;;;;7.47;4.68;;;;;;;;;;5082203;28;20042;-85
2022/05/21 04:39:04;;;;;;;7.88;4.22;;;;;;;;;;5060266;28;20036;-86
2022/05/21 04:41:30;;;;;;;6.90;4.53;;;;;;;;;;5062966;28;20524;-86
2022/05/21 04:43:56;;;;;;;7.40;4.72;;;;;;;;;;5078582;28;20099;-86
2022/05/21 04:46:23;;;;;;;8.32;4.53;;;;;;;;;;5056512;28;20025;-87
2022/05/21 04:48:49;;;;;;;7.88;4.95;;;;;;;;;;5075384;28;20021;-87
2022/05/21 04:51:15;;;;;;;10.95;5.00;;;;;;;;;;5079336;28;20039;-86
2022/05/21 04:53:41;;;;;;;6.60;4.70;;;;;;;;;;5060348;28;20048;-87
2022/05/21 04:56:06;;;;;;;7.57;4.40;;;;;;;;;;5079042;28;20027;-86
2022/05/21 04:58:33;;;;;;;6.57;4.43;;;;;;;;;;5074133;28;20029;-86
2022/05/21 05:01:00;;;;;;;6.95;4.10;;;;;;;;;;5077668;28;20456;-86
2022/05/21 05:03:25;;;;;;;5.95;4.75;;;;;;;;;;5075134;28;20046;-87
2022/05/21 05:05:51;;;;;;;5.65;4.90;;;;;;;;;;5079678;28;20024;-87
2022/05/21 05:08:19;;;;;;;5.40;4.43;;;;;;;;;;5066720;28;20037;-87
2022/05/21 05:10:45;;;;;;;6.22;4.57;;;;;;;;;;5080914;28;20386;-86
2022/05/21 05:13:11;;;;;;;7.22;4.28;;;;;;;;;;5063766;28;20597;-86
2022/05/21 05:15:36;;;;;;;5.72;4.57;;;;;;;;;;5088786;28;20032;-86
2022/05/21 05:18:10;;;;;;;5.95;4.20;;;;;;;;;;5086084;28;20040;-86
2022/05/21 05:20:37;;;;;;;6.88;3.90;;;;;;;;;;5084177;28;20036;-85
2022/05/21 05:23:04;;;;;;;5.43;4.43;;;;;;;;;;5087687;28;20084;-87
2022/05/21 05:25:29;;;;;;;6.18;4.28;;;;;;;;;;5089086;28;20035;-86
2022/05/21 05:27:55;;;;;;;4.82;4.07;;;;;;;;;;5072505;28;20088;-85
2022/05/21 05:30:21;;;;;;;5.88;3.97;;;;;;;;;;5080905;28;20036;-85
2022/05/21 05:32:47;;;;;;;5.75;3.63;;;;;;;;;;5081696;28;20478;-85
2022/05/21 05:35:12;;;;;;;6.47;3.75;;;;;;;;;;5069537;28;20067;-85
2022/05/21 05:37:39;;;;;;;5.40;3.80;;;;;;;;;;5076191;28;20024;-85
2022/05/21 05:40:06;;;;;;;5.22;3.80;;;;;;;;;;5077813;28;20028;-86
2022/05/21 05:42:37;;;;;;;5.93;3.67;;;;;;;;;;5073975;28;20076;-85
2022/05/21 05:45:05;;;;;;;7.82;3.78;;;;;;;;;;5072398;28;20032;-87
2022/05/21 05:47:31;;;;;;;5.85;4.10;;;;;;;;;;5073678;28;20044;-86
2022/05/21 05:49:57;;;;;;;4.70;3.90;;;;;;;;;;5077823;28;20025;-85
2022/05/21 05:52:23;;;;;;;6.22;4.10;;;;;;;;;;5075501;28;20021;-86
2022/05/21 05:54:49;;;;;;;5.97;3.90;;;;;;;;;;5059758;28;20386;-86
2022/05/21 05:57:15;;;;;;;4.85;3.10;;;;;;;;;;5074659;28;20043;-85
2022/05/21 05:59:50;;;;;;;5.65;3.65;;;;;;;;;;5056504;28;20059;-86
2022/05/21 06:05:00;;;;;;;4.32;2.78;;;;;;;;;;5083354;28;20039;-87
2022/05/21 06:07:26;;;;;;;7.30;2.92;;;;;;;;;;5079898;28;20028;-86
2022/05/21 06:09:51;;;;;;;8.88;2.85;;;;;;;;;;5064653;28;20031;-86
2022/05/21 06:12:17;;;;;;;5.43;2.60;;;;;;;;;;5064136;28;20084;-87
2022/05/21 06:14:45;;;;;;;5.25;2.72;;;;;;;;;;5055727;28;20025;-86
2022/05/21 06:17:10;;;;;;;5.07;2.80;;;;;;;;;;5082413;28;20024;-86
2022/05/21 06:19:36;;;;;;;3.95;2.38;;;;;;;;;;5083371;28;20013;-87
2022/05/21 06:22:03;;;;;;;2.67;2.15;;;;;;;;;;5086330;28;20024;-87
2022/05/21 06:24:33;;;;;;;4.13;2.40;;;;;;;;;;5060041;28;20024;-87
2022/05/21 06:26:58;;;;;;;5.20;2.00;;;;;;;;;;5086222;28;20024;-88
2022/05/21 06:29:23;;;;;;;2.95;2.10;;;;;;;;;;5063652;28;20036;-85
2022/05/21 06:31:49;;;;;;;3.13;2.05;;;;;;;;;;5085910;28;20024;-86
2022/05/21 06:34:14;;;;;;;1.80;1.70;;;;;;;;;;5062619;28;20084;-87
2022/05/21 06:36:39;;;;;;;4.78;2.05;;;;;;;;;;5080642;28;20016;-87
2022/05/21 06:39:05;;;;;;;4.60;1.90;;;;;;;;;;5082251;28;20070;-88
2022/05/21 06:41:31;;;;;;;1.95;1.65;;;;;;;;;;5070772;28;20024;-87
2022/05/21 06:43:57;;;;;;;4.28;1.65;;;;;;;;;;5082565;28;20047;-86
2022/05/21 06:46:23;;;;;;;1.73;1.60;;;;;;;;;;5082801;28;20085;-87
2022/05/21 06:48:48;;;;;;;2.38;1.38;;;;;;;;;;5086212;28;20031;-88
2022/05/21 06:51:14;;;;;;;1.67;1.33;;;;;;;;;;5063772;28;21509;-86
2022/05/21 06:53:40;;;;;;;2.03;1.38;;;;;;;;;;5084670;28;20029;-86
2022/05/21 06:56:06;;;;;;;2.13;1.38;;;;;;;;;;5079184;28;20029;-88
2022/05/21 06:58:31;;;;;;;1.30;1.20;;;;;;;;;;5087107;28;20213;-87
2022/05/21 07:00:57;;;;;;;4.85;1.42;;;;;;;;;;5088030;28;20056;-88
2022/05/21 07:03:22;;;;;;;4.40;1.42;;;;;;;;;;5083671;28;20059;-87
2022/05/21 07:08:31;;;;;;;2.45;1.42;;;;;;;;;;5086625;28;20036;-87
2022/05/21 07:10:57;;;;;;;1.40;1.30;;;;;;;;;;5089360;28;20513;-87
2022/05/21 07:13:23;;;;;;;5.20;1.35;;;;;;;;;;5087057;28;20058;-86
2022/05/21 07:15:49;;;;;;;3.33;1.35;;;;;;;;;;5082445;28;20016;-86
2022/05/21 07:18:19;;;;;;;2.05;1.17;;;;;;;;;;5085006;28;20030;-86
2022/05/21 07:20:46;;;;;;;1.58;1.30;;;;;;;;;;5065297;28;20051;-88
2022/05/21 07:23:12;;;;;;;3.17;1.17;;;;;;;;;;5061233;28;20055;-86
2022/05/21 07:25:39;;;;;;;3.13;0.70;;;;;;;;;;5078889;28;20362;-87
2022/05/21 07:28:05;;;;;;;1.02;0.90;;;;;;;;;;5062021;28;20024;-87
2022/05/21 07:30:30;;;;;;;1.13;0.82;;;;;;;;;;5080358;28;20031;-86
2022/05/21 07:32:56;;;;;;;2.03;1.00;;;;;;;;;;5063381;28;20044;-88
2022/05/21 07:35:23;;;;;;;1.55;0.82;;;;;;;;;;5078060;28;20525;-86
2022/05/21 07:37:50;;;;;;;2.33;1.05;;;;;;;;;;5059829;28;20035;-86
2022/05/21 07:40:17;;;;;;;2.30;0.77;;;;;;;;;;5059721;28;20048;-87
2022/05/21 07:42:43;;;;;;;1.52;0.88;;;;;;;;;;5085649;28;20012;-87
2022/05/21 07:45:11;;;;;;;1.00;0.70;;;;;;;;;;5078083;28;20035;-88
2022/05/21 07:47:37;;;;;;;0.60;0.60;;;;;;;;;;5081071;28;20084;-88
2022/05/21 07:50:03;;;;;;;3.58;0.82;;;;;;;;;;5062005;28;20048;-87
2022/05/21 07:52:29;;;;;;;3.15;0.75;;;;;;;;;;5075374;28;20652;-87
2022/05/21 07:54:56;;;;;;;2.30;0.85;;;;;;;;;;5074476;28;20035;-87
2022/05/21 07:57:21;;;;;;;3.33;0.90;;;;;;;;;;5076500;28;20039;-87
2022/05/21 07:59:47;;;;;;;1.10;0.98;;;;;;;;;;5063610;28;20028;-87
2022/05/21 08:02:17;;;;;;;1.35;0.80;;;;;;;;;;5081707;28;20051;-87
2022/05/21 08:04:44;;;;;;;2.15;0.90;;;;;;;;;;5060764;28;20050;-87
2022/05/21 08:07:10;;;;;;;3.10;1.10;;;;;;;;;;5079717;28;20120;-87
2022/05/21 08:09:35;;;;;;;1.40;1.00;;;;;;;;;;5081783;28;20048;-88
2022/05/21 08:12:02;;;;;;;3.78;0.95;;;;;;;;;;5076992;28;20036;-87
2022/05/21 08:14:28;;;;;;;0.57;0.57;;;;;;;;;;5086973;28;20024;-87
2022/05/21 08:16:53;;;;;;;2.75;1.08;;;;;;;;;;5062369;28;20154;-86
2022/05/21 08:19:19;;;;;;;1.63;1.00;;;;;;;;;;5065176;28;20032;-88
2022/05/21 08:21:44;;;;;;;1.55;0.65;;;;;;;;;;5085579;28;20024;-88
2022/05/21 08:26:56;;;;;;;4.13;1.00;;;;;;;;;;5079678;28;20063;-87
2022/05/21 08:29:28;;;;;;;2.25;0.70;;;;;;;;;;5077969;28;20386;-86
2022/05/21 08:31:54;;;;;;;3.47;1.20;;;;;;;;;;5079244;28;20478;-86
2022/05/21 08:34:24;;;;;;;3.22;1.10;;;;;;;;;;5080856;28;20039;-86
2022/05/21 08:36:59;;;;;;;2.10;0.63;;;;;;;;;;5078151;28;20549;-84
2022/05/21 08:39:25;;;;;;;1.80;0.98;;;;;;;;;;5081422;28;20017;-84
2022/05/21 08:41:57;;;;;;;3.22;1.00;;;;;;;;;;5060310;28;20454;-85
2022/05/21 08:44:48;;;;;;;;;;;;;;;;;;5073687;28;20096;-84
2022/05/21 08:47:21;;;;;;;5.38;1.30;;;;;;;;;;5076724;28;19920;-84
2022/05/21 08:50:03;;;;;;;2.70;0.95;;;;;;;;;;5079569;28;20048;-84
2022/05/21 08:52:52;;;;;;;1.48;1.00;;;;;;;;;;5085276;28;20111;-85
2022/05/21 08:55:21;;;;;;;4.18;1.80;;;;;;;;;;5085426;28;20111;-86
2022/05/21 08:57:51;;;;;;;0.82;0.82;;;;;;;;;;5063176;28;20032;-83
2022/05/21 09:00:33;;;;;;;0.82;0.82;;;;;;;;;;5081386;28;20829;-83
2022/05/21 09:02:58;;;;;;;;;;;;;;;;;;5090646;28;20079;-84
2022/05/21 09:05:25;;;;;;;3.38;1.10;;;;;;;;;;5083707;28;19922;-86
2022/05/21 09:08:09;;;;;;;1.85;0.95;;;;;;;;;;5081013;28;20017;-86
2022/05/21 09:11:03;;;;;;;4.13;1.27;;;;;;;;;;5080360;28;21314;-86
2022/05/21 09:13:41;;;;;;;1.20;0.68;;;;;;;;;;5067295;28;20035;-87
2022/05/21 09:18:55;;;;;;;1.40;1.02;;;;;;;;;;5081085;28;20110;-84
2022/05/21 09:21:23;;;;;;;2.58;1.42;;;;;;;;;;5061991;28;20024;-86
2022/05/21 09:23:55;;;;;;;3.13;1.20;;;;;;;;;;5081200;28;20032;-85
2022/05/21 09:26:26;;;;;;;1.58;0.90;;;;;;;;;;5074576;28;20028;-86
2022/05/21 09:29:10;;;;;;;2.67;1.30;;;;;;;;;;5061207;28;20086;-86
2022/05/21 09:31:35;;;;;;;1.92;1.40;;;;;;;;;;5078375;28;20024;-86
2022/05/21 09:34:13;;;;;;;1.63;1.00;;;;;;;;;;5084132;28;20174;-85
2022/05/21 09:36:39;;;;;;;2.30;1.38;;;;;;;;;;5078470;28;20024;-85
2022/05/21 09:39:04;;;;;;;6.63;1.10;;;;;;;;;;5080302;28;20029;-86
2022/05/21 09:41:32;;;;;;;3.63;0.95;;;;;;;;;;5072323;28;20039;-86
2022/05/21 09:47:13;;;;;;;1.25;0.88;;;;;;;;;;5078066;28;20047;-86
2022/05/21 09:49:39;;;;;;;2.45;0.70;;;;;;;;;;5079158;28;20063;-86
2022/05/21 09:52:20;;;;;;;1.20;0.88;;;;;;;;;;5075384;28;20024;-86
2022/05/21 09:54:45;;;;;;;1.70;0.80;;;;;;;;;;5056179;28;20440;-86
2022/05/21 09:57:33;;;;;;;5.70;0.95;;;;;;;;;;5074776;28;20478;-86
2022/05/21 10:00:16;;;;;;;4.43;1.02;;;;;;;;;;5075615;28;20048;-85
2022/05/21 10:02:44;;;;;;;3.33;1.02;;;;;;;;;;5057435;28;20017;-86
2022/05/21 10:05:16;;;;;;;1.63;0.95;;;;;;;;;;5058682;28;20028;-87
2022/05/21 10:10:59;;;;;;;3.03;1.30;;;;;;;;;;5078390;28;20043;-86
2022/05/21 10:13:39;;;;;;;1.65;0.93;;;;;;;;;;5076444;28;20032;-85
2022/05/21 10:16:17;;;;;;;2.17;0.70;;;;;;;;;;5046620;28;20036;-88
2022/05/21 10:19:12;;;;;;;2.72;1.02;;;;;;;;;;5068343;28;20484;-89
2022/05/21 10:21:53;;;;;;;3.08;0.90;;;;;;;;;;5058243;28;21111;-87
2022/05/21 10:24:31;;;;;;;2.23;1.13;;;;;;;;;;5064062;28;20070;-87
2022/05/21 10:27:21;;;;;;;1.30;0.80;;;;;;;;;;5073605;28;20021;-87
2022/05/21 10:30:03;;;;;;;2.05;0.90;;;;;;;;;;5078569;28;20036;-87
2022/05/21 10:32:37;;;;;;;1.52;0.75;;;;;;;;;;5077183;28;20108;-87
2022/05/21 10:35:28;;;;;;;1.67;0.80;;;;;;;;;;5082784;28;20066;-86
2022/05/21 10:38:05;;;;;;;0.60;0.60;;;;;;;;;;5059116;28;20130;-88
2022/05/21 10:41:09;;;;;;;2.90;0.80;;;;;;;;;;5077761;28;20024;-86
2022/05/21 10:44:01;;;;;;;2.47;0.85;;;;;;;;;;5077174;28;20032;-87
2022/05/21 10:47:03;;;;;;;1.20;0.80;;;;;;;;;;5072170;28;20398;-86
2022/05/21 10:49:48;;;;;;;2.43;0.90;;;;;;;;;;5074558;28;20028;-87
2022/05/21 10:52:25;;;;;;;0.77;0.60;;;;;;;;;;5034614;28;20339;-88
2022/05/21 10:55:09;;;;;;;2.80;0.88;;;;;;;;;;5068624;28;20024;-85
2022/05/21 10:58:15;;;;;;;3.50;0.90;;;;;;;;;;5074186;28;20036;-87
2022/05/21 11:01:14;;;;;;;2.30;0.80;;;;;;;;;;5058282;28;20091;-87
2022/05/21 11:03:49;;;;;;;1.60;0.60;;;;;;;;;;5060460;28;20040;-86
2022/05/21 11:06:36;;;;;;;0.98;0.70;;;;;;;;;;5086783;28;20024;-86
2022/05/21 11:09:20;;;;;;;5.60;1.02;;;;;;;;;;5071778;28;20581;-87
2022/05/21 11:12:00;;;;;;;0.65;0.65;;;;;;;;;;5068560;28;20078;-87
2022/05/21 11:14:38;;;;;;;1.08;0.60;;;;;;;;;;5090401;28;20088;-87
2022/05/21 11:17:22;;;;;;;3.50;0.98;;;;;;;;;;5085127;28;20027;-87
2022/05/21 11:20:02;;;;;;;1.80;0.73;;;;;;;;;;5080733;28;20063;-88
2022/05/21 11:22:51;;;;;;;2.97;1.25;;;;;;;;;;5074091;28;20027;-86
2022/05/21 11:25:28;;;;;;;1.25;0.80;;;;;;;;;;5076776;28;20042;-87
2022/05/21 11:27:56;;;;;;;1.40;0.55;;;;;;;;;;5076581;28;20056;-86
2022/05/21 11:30:22;;;;;;;2.38;0.90;;;;;;;;;;5077702;28;20032;-87
2022/05/21 11:38:40;;;;;;;2.60;1.00;;;;;;;;;;5075526;28;20085;-86
2022/05/21 11:41:28;;;;;;;2.58;1.30;;;;;;;;;;5079121;28;20024;-83
2022/05/21 11:47:07;;;;;;;6.97;1.60;;;;;;;;;;5081143;28;20437;-87
2022/05/21 11:49:57;;;;;;;3.10;0.70;;;;;;;;;;5058834;28;20466;-85
2022/05/21 11:52:28;;;;;;;1.88;0.80;;;;;;;;;;5058946;28;20086;-85
2022/05/21 11:54:53;;;;;;;2.70;0.98;;;;;;;;;;5075849;28;20523;-85
2022/05/21 11:57:42;;;;;;;2.60;0.70;;;;;;;;;;5076562;28;20115;-83
2022/05/21 12:00:08;;;;;;;2.55;1.02;;;;;;;;;;5059770;28;20036;-84
2022/05/21 12:03:04;;;;;;;2.65;1.23;;;;;;;;;;5076312;28;20103;-84
2022/05/21 12:05:33;;;;;;;3.03;0.90;;;;;;;;;;5086851;28;20028;-85
2022/05/21 12:08:23;;;;;;;10.40;1.40;;;;;;;;;;5068620;28;20074;-85
2022/05/21 12:11:23;;;;;;;6.15;1.20;;;;;;;;;;5073218;28;20024;-85
2022/05/21 12:14:00;;;;;;;3.08;1.27;;;;;;;;;;5087731;28;20020;-85
2022/05/21 12:16:26;;;;;;;1.90;0.85;;;;;;;;;;5075237;28;20120;-85
2022/05/21 12:19:00;;;;;;;3.58;1.10;;;;;;;;;;5075670;28;20027;-86
2022/05/21 12:21:41;;;;;;;3.30;1.63;;;;;;;;;;5080264;28;20040;-86
2022/05/21 12:24:26;;;;;;;1.10;0.73;;;;;;;;;;5084540;28;20031;-85
2022/05/21 12:27:21;;;;;;;4.40;1.15;;;;;;;;;;5078836;28;20040;-84
2022/05/21 12:29:48;;;;;;;2.08;0.68;;;;;;;;;;5082271;28;20024;-84
2022/05/21 12:32:23;;;;;;;1.30;0.70;;;;;;;;;;5079714;28;20032;-85
2022/05/21 12:35:01;;;;;;;1.65;0.75;;;;;;;;;;5078422;28;20032;-86
2022/05/21 12:37:40;;;;;;;1.60;1.00;;;;;;;;;;5078051;28;20050;-85
2022/05/21 12:40:34;;;;;;;1.27;0.77;;;;;;;;;;5083787;28;20025;-85
2022/05/21 12:43:09;;;;;;;3.38;1.20;;;;;;;;;;5052440;28;20039;-84
2022/05/21 12:45:43;;;;;;;2.28;0.80;;;;;;;;;;5075746;28;20567;-89
2022/05/21 12:48:18;;;;;;;2.03;1.00;;;;;;;;;;5078207;28;20035;-87
2022/05/21 12:50:56;;;;;;;4.55;0.90;;;;;;;;;;5056141;28;20096;-86
2022/05/21 12:53:34;;;;;;;2.55;1.00;;;;;;;;;;5080965;28;20028;-85
2022/05/21 12:56:12;;;;;;;2.63;1.00;;;;;;;;;;5081755;28;20039;-86
2022/05/21 12:58:37;;;;;;;2.40;1.20;;;;;;;;;;5064253;28;20024;-85
2022/05/21 13:01:02;;;;;;;1.15;0.80;;;;;;;;;;5080327;28;20435;-85
2022/05/21 13:03:33;;;;;;;3.92;1.15;;;;;;;;;;5084393;28;20020;-85
2022/05/21 13:06:05;;;;;;;1.27;0.90;;;;;;;;;;5083528;28;20017;-86
2022/05/21 13:08:33;;;;;;;1.15;1.00;;;;;;;;;;5065824;28;20021;-87
2022/05/21 13:11:18;;;;;;;3.15;0.80;;;;;;;;;;5081499;28;20024;-87
2022/05/21 13:13:50;;;;;;;1.27;0.80;;;;;;;;;;5079194;28;20052;-84
2022/05/21 13:16:18;;;;;;;2.25;0.98;;;;;;;;;;5080006;28;20066;-85
2022/05/21 13:18:49;;;;;;;1.88;1.02;;;;;;;;;;5084718;28;20021;-84
2022/05/21 13:21:26;;;;;;;2.22;0.90;;;;;;;;;;5079327;28;20029;-86
2022/05/21 13:24:29;;;;;;;4.05;1.20;;;;;;;;;;5079517;28;20023;-86
2022/05/21 13:27:21;;;;;;;2.97;1.20;;;;;;;;;;5078683;28;20027;-85
2022/05/21 13:29:52;;;;;;;1.15;0.73;;;;;;;;;;5086345;28;20108;-88
2022/05/21 13:32:26;;;;;;;5.25;1.08;;;;;;;;;;5083818;28;20084;-85
2022/05/21 13:34:58;;;;;;;3.88;0.70;;;;;;;;;;5090167;28;20016;-88
2022/05/21 13:37:33;;;;;;;1.58;0.70;;;;;;;;;;5091998;28;20029;-87
2022/05/21 13:40:14;;;;;;;2.88;1.15;;;;;;;;;;5092930;28;20029;-87
2022/05/21 13:42:42;;;;;;;4.10;1.20;;;;;;;;;;5070744;28;20028;-87
2022/05/21 13:45:14;;;;;;;1.98;0.77;;;;;;;;;;5072973;28;20028;-88
2022/05/21 13:47:47;;;;;;;5.82;1.00;;;;;;;;;;5066357;28;20059;-88
2022/05/21 13:50:13;;;;;;;2.85;0.88;;;;;;;;;;5073383;28;20417;-86
2022/05/21 13:52:38;;;;;;;1.17;0.85;;;;;;;;;;5081132;28;20017;-87
2022/05/21 13:55:06;;;;;;;1.98;0.80;;;;;;;;;;5085506;28;20044;-88
2022/05/21 13:57:34;;;;;;;2.22;1.00;;;;;;;;;;5083536;28;20020;-87
2022/05/21 14:00:25;;;;;;;1.48;1.02;;;;;;;;;;5078290;28;20036;-86
2022/05/21 14:02:54;;;;;;;3.10;0.98;;;;;;;;;;5063475;28;20233;-87
2022/05/21 14:05:23;;;;;;;1.95;0.77;;;;;;;;;;5087133;28;20032;-86
2022/05/21 14:07:53;;;;;;;4.35;1.30;;;;;;;;;;5076341;28;20039;-87
2022/05/21 14:10:32;;;;;;;2.83;1.00;;;;;;;;;;5091416;28;20601;-85
2022/05/21 14:12:58;;;;;;;1.65;0.93;;;;;;;;;;5069660;28;20152;-87
2022/05/21 14:15:28;;;;;;;0.68;0.68;;;;;;;;;;5094993;28;20493;-88
2022/05/21 14:18:01;;;;;;;1.05;0.93;;;;;;;;;;5066530;28;20417;-89
2022/05/21 14:20:29;;;;;;;3.03;1.25;;;;;;;;;;5080791;28;20035;-86
2022/05/21 14:22:55;;;;;;;2.55;1.10;;;;;;;;;;5085939;28;20020;-87
2022/05/21 14:25:25;;;;;;;1.48;0.77;;;;;;;;;;5100131;28;20047;-87
2022/05/21 14:28:13;;;;;;;2.40;1.10;;;;;;;;;;5098991;28;20020;-87
2022/05/21 14:30:43;;;;;;;2.10;1.17;;;;;;;;;;5056724;28;20032;-89
2022/05/21 14:33:12;;;;;;;1.80;1.00;;;;;;;;;;5099163;28;20086;-88
2022/05/21 14:35:38;;;;;;;1.73;0.90;;;;;;;;;;5078537;28;20135;-87
2022/05/21 14:38:04;;;;;;;2.35;0.70;;;;;;;;;;5081607;28;20052;-88
2022/05/21 14:40:41;;;;;;;4.57;1.38;;;;;;;;;;5082184;28;20040;-87
2022/05/21 14:43:13;;;;;;;2.80;0.95;;;;;;;;;;5081605;28;20013;-89
2022/05/21 14:45:39;;;;;;;2.50;0.98;;;;;;;;;;5067294;28;20899;-87
2022/05/21 14:48:05;;;;;;;1.35;0.77;;;;;;;;;;5068230;28;20050;-87
2022/05/21 14:53:30;;;;;;;0.65;0.65;;;;;;;;;;5081421;28;20551;-88
2022/05/21 14:56:01;;;;;;;8.27;1.27;;;;;;;;;;5064728;28;20048;-88
2022/05/21 14:58:26;;;;;;;1.50;0.68;;;;;;;;;;5078182;28;20024;-87
2022/05/21 15:00:53;;;;;;;1.52;0.70;;;;;;;;;;5096589;28;20036;-85
2022/05/21 15:03:18;;;;;;;0.70;0.70;;;;;;;;;;5096788;28;20000;-85
2022/05/21 15:05:46;;;;;;;1.98;0.70;;;;;;;;;;5098908;28;20084;-85
2022/05/21 15:08:18;;;;;;;3.95;0.98;;;;;;;;;;5108427;28;20024;-87
2022/05/21 15:10:44;;;;;;;2.40;0.95;;;;;;;;;;5061750;28;20092;-88
2022/05/21 15:13:10;;;;;;;2.75;0.85;;;;;;;;;;5100242;28;20028;-85
2022/05/21 15:15:35;;;;;;;0.85;0.75;;;;;;;;;;5104034;28;20027;-86
2022/05/21 15:18:00;;;;;;;2.28;1.08;;;;;;;;;;5102315;28;20032;-86
2022/05/21 15:20:26;;;;;;;2.47;1.00;;;;;;;;;;5094452;28;20028;-87
2022/05/21 15:22:52;;;;;;;0.65;0.65;;;;;;;;;;5108811;28;20011;-86
2022/05/21 15:25:21;;;;;;;2.08;0.82;;;;;;;;;;5112540;28;20481;-85
2022/05/21 15:27:47;;;;;;;1.10;0.88;;;;;;;;;;5104331;28;20021;-84
2022/05/21 15:30:15;;;;;;;0.98;0.70;;;;;;;;;;5071979;28;20021;-86
2022/05/21 15:32:41;;;;;;;7.72;1.00;;;;;;;;;;5079219;28;20056;-88
2022/05/21 15:35:08;;;;;;;3.63;0.95;;;;;;;;;;5078143;28;20028;-87
2022/05/21 15:37:34;;;;;;;1.95;0.80;;;;;;;;;;5097003;28;20390;-86
2022/05/21 15:40:00;;;;;;;2.88;0.80;;;;;;;;;;5068460;28;20061;-88
2022/05/21 15:42:26;;;;;;;2.65;1.30;;;;;;;;;;5058619;28;20488;-87